sensor_id;sensor_type;location;lat;lon;timestamp;temperature;humidity
52481;DHT22;38393;52.404;13.532;2023-04-25T00:01:55;8.30;91.10
52481;DHT22;38393;52.404;13.532;2023-04-25T00:04:21;8.40;90.90
52481;DHT22;38393;52.404;13.532;2023-04-25T00:06:47;8.30;90.70
52481;DHT22;38393;52.404;13.532;2023-04-25T00:09:13;8.20;90.60
52481;DHT22;38393;52.404;13.532;2023-04-25T00:11:38;8.20;90.40
52481;DHT22;38393;52.404;13.532;2023-04-25T00:14:04;8.20;90.30
52481;DHT22;38393;52.404;13.532;2023-04-25T00:16:30;8.20;90.00
52481;DHT22;38393;52.404;13.532;2023-04-25T00:18:59;8.20;90.00
52481;DHT22;38393;52.404;13.532;2023-04-25T00:21:24;8.00;90.10
52481;DHT22;38393;52.404;13.532;2023-04-25T00:23:52;8.00;90.20
52481;DHT22;38393;52.404;13.532;2023-04-25T00:26:18;8.10;89.70
52481;DHT22;38393;52.404;13.532;2023-04-25T00:28:43;8.10;88.90
52481;DHT22;38393;52.404;13.532;2023-04-25T00:31:08;8.10;88.20
52481;DHT22;38393;52.404;13.532;2023-04-25T00:33:34;8.00;88.20
52481;DHT22;38393;52.404;13.532;2023-04-25T00:36:00;8.00;88.50
52481;DHT22;38393;52.404;13.532;2023-04-25T00:38:25;8.00;88.50
52481;DHT22;38393;52.404;13.532;2023-04-25T00:40:51;8.10;87.50
52481;DHT22;38393;52.404;13.532;2023-04-25T00:43:18;8.20;87.80
52481;DHT22;38393;52.404;13.532;2023-04-25T00:45:43;8.00;87.50
52481;DHT22;38393;52.404;13.532;2023-04-25T00:48:13;8.20;86.80
52481;DHT22;38393;52.404;13.532;2023-04-25T00:50:39;8.10;87.60
52481;DHT22;38393;52.404;13.532;2023-04-25T00:53:04;8.10;88.50
52481;DHT22;38393;52.404;13.532;2023-04-25T00:55:30;8.00;88.40
52481;DHT22;38393;52.404;13.532;2023-04-25T00:57:57;8.20;87.90
52481;DHT22;38393;52.404;13.532;2023-04-25T01:00:23;8.20;88.90
52481;DHT22;38393;52.404;13.532;2023-04-25T01:02:48;8.20;88.10
52481;DHT22;38393;52.404;13.532;2023-04-25T01:05:15;8.30;88.10
52481;DHT22;38393;52.404;13.532;2023-04-25T01:07:40;8.30;87.90
52481;DHT22;38393;52.404;13.532;2023-04-25T01:10:06;8.30;88.20
52481;DHT22;38393;52.404;13.532;2023-04-25T01:12:32;8.40;88.40
52481;DHT22;38393;52.404;13.532;2023-04-25T01:14:58;8.40;88.50
52481;DHT22;38393;52.404;13.532;2023-04-25T01:17:23;8.40;88.30
52481;DHT22;38393;52.404;13.532;2023-04-25T01:19:49;8.50;88.10
52481;DHT22;38393;52.404;13.532;2023-04-25T01:22:16;8.40;88.30
52481;DHT22;38393;52.404;13.532;2023-04-25T01:24:42;8.50;88.00
52481;DHT22;38393;52.404;13.532;2023-04-25T01:27:08;8.50;88.00
52481;DHT22;38393;52.404;13.532;2023-04-25T01:29:34;8.50;87.30
52481;DHT22;38393;52.404;13.532;2023-04-25T01:32:01;8.50;87.70
52481;DHT22;38393;52.404;13.532;2023-04-25T01:34:27;8.60;87.90
52481;DHT22;38393;52.404;13.532;2023-04-25T01:36:53;8.50;87.80
52481;DHT22;38393;52.404;13.532;2023-04-25T01:39:19;8.50;87.90
52481;DHT22;38393;52.404;13.532;2023-04-25T01:41:46;8.40;87.80
52481;DHT22;38393;52.404;13.532;2023-04-25T01:44:13;8.50;88.40
52481;DHT22;38393;52.404;13.532;2023-04-25T01:46:38;8.50;87.50
52481;DHT22;38393;52.404;13.532;2023-04-25T01:49:04;8.50;87.70
52481;DHT22;38393;52.404;13.532;2023-04-25T01:51:30;8.50;88.10
52481;DHT22;38393;52.404;13.532;2023-04-25T01:53:56;8.50;87.70
52481;DHT22;38393;52.404;13.532;2023-04-25T01:56:22;8.30;87.60
52481;DHT22;38393;52.404;13.532;2023-04-25T01:58:47;8.50;87.70
52481;DHT22;38393;52.404;13.532;2023-04-25T02:01:13;8.40;87.70
52481;DHT22;38393;52.404;13.532;2023-04-25T02:03:39;8.40;88.40
52481;DHT22;38393;52.404;13.532;2023-04-25T02:06:05;8.50;87.80
52481;DHT22;38393;52.404;13.532;2023-04-25T02:08:30;8.40;88.10
52481;DHT22;38393;52.404;13.532;2023-04-25T02:10:56;8.30;88.20
52481;DHT22;38393;52.404;13.532;2023-04-25T02:13:22;8.40;88.20
52481;DHT22;38393;52.404;13.532;2023-04-25T02:15:47;8.30;89.10
52481;DHT22;38393;52.404;13.532;2023-04-25T02:18:13;8.20;88.70
52481;DHT22;38393;52.404;13.532;2023-04-25T02:20:41;8.30;89.10
52481;DHT22;38393;52.404;13.532;2023-04-25T02:23:06;8.30;88.90
52481;DHT22;38393;52.404;13.532;2023-04-25T02:25:32;8.40;88.30
52481;DHT22;38393;52.404;13.532;2023-04-25T02:27:57;8.30;88.20
52481;DHT22;38393;52.404;13.532;2023-04-25T02:30:23;8.30;88.90
52481;DHT22;38393;52.404;13.532;2023-04-25T02:32:48;8.30;89.10
52481;DHT22;38393;52.404;13.532;2023-04-25T02:35:14;8.30;88.80
52481;DHT22;38393;52.404;13.532;2023-04-25T02:37:40;8.30;88.60
52481;DHT22;38393;52.404;13.532;2023-04-25T02:40:06;8.30;88.50
52481;DHT22;38393;52.404;13.532;2023-04-25T02:42:32;8.20;88.90
52481;DHT22;38393;52.404;13.532;2023-04-25T02:44:58;8.20;89.00
52481;DHT22;38393;52.404;13.532;2023-04-25T02:47:23;8.20;89.00
52481;DHT22;38393;52.404;13.532;2023-04-25T02:49:49;8.10;89.10
52481;DHT22;38393;52.404;13.532;2023-04-25T02:52:14;8.30;88.80
52481;DHT22;38393;52.404;13.532;2023-04-25T02:54:40;8.20;89.10
52481;DHT22;38393;52.404;13.532;2023-04-25T02:57:06;8.10;89.40
52481;DHT22;38393;52.404;13.532;2023-04-25T02:59:32;8.30;89.20
52481;DHT22;38393;52.404;13.532;2023-04-25T03:01:57;8.10;89.40
52481;DHT22;38393;52.404;13.532;2023-04-25T03:04:23;8.20;89.10
52481;DHT22;38393;52.404;13.532;2023-04-25T03:06:52;8.20;89.00
52481;DHT22;38393;52.404;13.532;2023-04-25T03:09:18;8.00;89.80
52481;DHT22;38393;52.404;13.532;2023-04-25T03:11:44;8.10;89.50
52481;DHT22;38393;52.404;13.532;2023-04-25T03:14:10;8.10;89.00
52481;DHT22;38393;52.404;13.532;2023-04-25T03:16:36;8.10;89.90
52481;DHT22;38393;52.404;13.532;2023-04-25T03:19:02;8.20;89.20
52481;DHT22;38393;52.404;13.532;2023-04-25T03:21:28;8.10;90.00
52481;DHT22;38393;52.404;13.532;2023-04-25T03:23:54;8.10;89.80
52481;DHT22;38393;52.404;13.532;2023-04-25T03:26:19;8.10;90.00
52481;DHT22;38393;52.404;13.532;2023-04-25T03:28:45;8.10;89.80
52481;DHT22;38393;52.404;13.532;2023-04-25T03:31:11;8.20;89.30
52481;DHT22;38393;52.404;13.532;2023-04-25T03:33:36;8.30;89.30
52481;DHT22;38393;52.404;13.532;2023-04-25T03:36:02;8.20;89.60
52481;DHT22;38393;52.404;13.532;2023-04-25T03:38:27;8.20;89.90
52481;DHT22;38393;52.404;13.532;2023-04-25T03:40:54;8.20;89.20
52481;DHT22;38393;52.404;13.532;2023-04-25T03:43:19;8.20;89.10
52481;DHT22;38393;52.404;13.532;2023-04-25T03:45:45;8.20;89.50
52481;DHT22;38393;52.404;13.532;2023-04-25T03:48:11;8.30;89.20
52481;DHT22;38393;52.404;13.532;2023-04-25T03:50:37;8.20;89.10
52481;DHT22;38393;52.404;13.532;2023-04-25T03:53:02;8.20;89.50
52481;DHT22;38393;52.404;13.532;2023-04-25T03:55:27;8.30;89.20
52481;DHT22;38393;52.404;13.532;2023-04-25T03:57:53;8.30;89.50
52481;DHT22;38393;52.404;13.532;2023-04-25T04:00:19;8.20;89.30
52481;DHT22;38393;52.404;13.532;2023-04-25T04:02:44;8.30;89.10
52481;DHT22;38393;52.404;13.532;2023-04-25T04:05:10;8.20;89.50
52481;DHT22;38393;52.404;13.532;2023-04-25T04:07:35;8.20;88.90
52481;DHT22;38393;52.404;13.532;2023-04-25T04:10:09;8.20;89.40
52481;DHT22;38393;52.404;13.532;2023-04-25T04:12:35;8.30;89.10
52481;DHT22;38393;52.404;13.532;2023-04-25T04:15:01;8.30;89.10
52481;DHT22;38393;52.404;13.532;2023-04-25T04:17:28;8.30;89.30
52481;DHT22;38393;52.404;13.532;2023-04-25T04:19:53;8.20;89.30
52481;DHT22;38393;52.404;13.532;2023-04-25T04:22:19;8.30;89.30
52481;DHT22;38393;52.404;13.532;2023-04-25T04:24:44;8.20;89.30
52481;DHT22;38393;52.404;13.532;2023-04-25T04:27:11;8.30;89.40
52481;DHT22;38393;52.404;13.532;2023-04-25T04:29:38;8.30;89.00
52481;DHT22;38393;52.404;13.532;2023-04-25T04:32:03;8.30;89.10
52481;DHT22;38393;52.404;13.532;2023-04-25T04:34:29;8.30;89.10
52481;DHT22;38393;52.404;13.532;2023-04-25T04:36:56;8.20;89.20
52481;DHT22;38393;52.404;13.532;2023-04-25T04:39:22;8.30;89.00
52481;DHT22;38393;52.404;13.532;2023-04-25T04:41:47;8.20;89.30
52481;DHT22;38393;52.404;13.532;2023-04-25T04:44:13;8.20;89.00
52481;DHT22;38393;52.404;13.532;2023-04-25T04:46:39;8.30;89.40
52481;DHT22;38393;52.404;13.532;2023-04-25T04:49:05;8.40;89.40
52481;DHT22;38393;52.404;13.532;2023-04-25T04:51:31;8.30;89.20
52481;DHT22;38393;52.404;13.532;2023-04-25T04:53:57;8.30;89.10
52481;DHT22;38393;52.404;13.532;2023-04-25T04:56:24;8.20;89.60
52481;DHT22;38393;52.404;13.532;2023-04-25T04:58:50;8.30;89.50
52481;DHT22;38393;52.404;13.532;2023-04-25T05:01:16;8.30;89.00
52481;DHT22;38393;52.404;13.532;2023-04-25T05:03:41;8.30;89.20
52481;DHT22;38393;52.404;13.532;2023-04-25T05:06:07;8.40;89.70
52481;DHT22;38393;52.404;13.532;2023-04-25T05:08:34;8.40;89.90
52481;DHT22;38393;52.404;13.532;2023-04-25T05:10:59;8.50;89.10
52481;DHT22;38393;52.404;13.532;2023-04-25T05:13:24;8.50;88.20
52481;DHT22;38393;52.404;13.532;2023-04-25T05:15:50;8.70;88.80
52481;DHT22;38393;52.404;13.532;2023-04-25T05:18:15;8.70;88.70
52481;DHT22;38393;52.404;13.532;2023-04-25T05:20:41;8.60;88.60
52481;DHT22;38393;52.404;13.532;2023-04-25T05:23:06;8.70;88.30
52481;DHT22;38393;52.404;13.532;2023-04-25T05:25:32;8.70;88.30
52481;DHT22;38393;52.404;13.532;2023-04-25T05:27:58;8.80;88.00
52481;DHT22;38393;52.404;13.532;2023-04-25T05:30:24;8.60;88.20
52481;DHT22;38393;52.404;13.532;2023-04-25T05:32:49;8.60;88.40
52481;DHT22;38393;52.404;13.532;2023-04-25T05:35:15;8.70;88.50
52481;DHT22;38393;52.404;13.532;2023-04-25T05:37:41;8.70;88.10
52481;DHT22;38393;52.404;13.532;2023-04-25T05:40:07;8.70;88.20
52481;DHT22;38393;52.404;13.532;2023-04-25T05:42:32;8.60;88.70
52481;DHT22;38393;52.404;13.532;2023-04-25T05:44:58;8.70;88.70
52481;DHT22;38393;52.404;13.532;2023-04-25T05:47:23;8.70;87.80
52481;DHT22;38393;52.404;13.532;2023-04-25T05:49:49;8.80;88.80
52481;DHT22;38393;52.404;13.532;2023-04-25T05:52:14;8.80;88.00
52481;DHT22;38393;52.404;13.532;2023-04-25T05:54:40;8.90;86.90
52481;DHT22;38393;52.404;13.532;2023-04-25T05:57:06;8.90;86.80
52481;DHT22;38393;52.404;13.532;2023-04-25T05:59:31;8.80;87.50
52481;DHT22;38393;52.404;13.532;2023-04-25T06:01:57;9.00;87.50
52481;DHT22;38393;52.404;13.532;2023-04-25T06:04:22;9.10;87.60
52481;DHT22;38393;52.404;13.532;2023-04-25T06:06:48;9.00;87.10
52481;DHT22;38393;52.404;13.532;2023-04-25T06:09:13;9.10;87.00
52481;DHT22;38393;52.404;13.532;2023-04-25T06:11:39;9.10;87.00
52481;DHT22;38393;52.404;13.532;2023-04-25T06:14:05;9.00;86.50
52481;DHT22;38393;52.404;13.532;2023-04-25T06:16:31;9.00;87.00
52481;DHT22;38393;52.404;13.532;2023-04-25T06:18:56;9.10;87.00
52481;DHT22;38393;52.404;13.532;2023-04-25T06:21:22;9.10;86.80
52481;DHT22;38393;52.404;13.532;2023-04-25T06:23:47;9.10;86.20
52481;DHT22;38393;52.404;13.532;2023-04-25T06:26:13;9.10;86.60
52481;DHT22;38393;52.404;13.532;2023-04-25T06:28:38;9.10;87.60
52481;DHT22;38393;52.404;13.532;2023-04-25T06:31:04;9.00;87.50
52481;DHT22;38393;52.404;13.532;2023-04-25T06:33:30;9.00;87.10
52481;DHT22;38393;52.404;13.532;2023-04-25T06:35:55;8.90;87.20
52481;DHT22;38393;52.404;13.532;2023-04-25T06:38:20;9.10;87.30
52481;DHT22;38393;52.404;13.532;2023-04-25T06:40:46;9.10;87.30
52481;DHT22;38393;52.404;13.532;2023-04-25T06:43:11;9.10;87.10
52481;DHT22;38393;52.404;13.532;2023-04-25T06:45:37;9.20;87.50
52481;DHT22;38393;52.404;13.532;2023-04-25T06:48:02;9.30;86.80
52481;DHT22;38393;52.404;13.532;2023-04-25T06:50:28;9.20;86.10
52481;DHT22;38393;52.404;13.532;2023-04-25T06:52:53;9.10;86.20
52481;DHT22;38393;52.404;13.532;2023-04-25T06:55:19;9.20;86.40
52481;DHT22;38393;52.404;13.532;2023-04-25T06:57:45;9.20;86.90
52481;DHT22;38393;52.404;13.532;2023-04-25T07:00:10;9.20;86.90
52481;DHT22;38393;52.404;13.532;2023-04-25T07:02:36;9.30;86.40
52481;DHT22;38393;52.404;13.532;2023-04-25T07:05:03;9.30;86.60
52481;DHT22;38393;52.404;13.532;2023-04-25T07:07:32;9.20;86.60
52481;DHT22;38393;52.404;13.532;2023-04-25T07:09:57;9.30;87.30
52481;DHT22;38393;52.404;13.532;2023-04-25T07:12:23;9.40;86.60
52481;DHT22;38393;52.404;13.532;2023-04-25T07:14:48;9.20;86.20
52481;DHT22;38393;52.404;13.532;2023-04-25T07:17:14;9.30;87.00
52481;DHT22;38393;52.404;13.532;2023-04-25T07:19:40;9.30;86.70
52481;DHT22;38393;52.404;13.532;2023-04-25T07:22:06;9.40;87.00
52481;DHT22;38393;52.404;13.532;2023-04-25T07:24:32;9.30;86.10
52481;DHT22;38393;52.404;13.532;2023-04-25T07:26:57;9.30;86.60
52481;DHT22;38393;52.404;13.532;2023-04-25T07:29:23;9.30;87.20
52481;DHT22;38393;52.404;13.532;2023-04-25T07:31:49;9.30;87.40
52481;DHT22;38393;52.404;13.532;2023-04-25T07:34:14;9.20;88.10
52481;DHT22;38393;52.404;13.532;2023-04-25T07:36:41;9.10;88.80
52481;DHT22;38393;52.404;13.532;2023-04-25T07:39:06;9.20;89.10
52481;DHT22;38393;52.404;13.532;2023-04-25T07:41:32;9.30;89.20
52481;DHT22;38393;52.404;13.532;2023-04-25T07:43:57;9.50;88.70
52481;DHT22;38393;52.404;13.532;2023-04-25T07:46:23;9.40;88.60
52481;DHT22;38393;52.404;13.532;2023-04-25T07:48:49;9.50;88.00
52481;DHT22;38393;52.404;13.532;2023-04-25T07:51:14;9.30;90.10
52481;DHT22;38393;52.404;13.532;2023-04-25T07:53:40;8.90;91.90
52481;DHT22;38393;52.404;13.532;2023-04-25T07:56:06;8.50;93.10
52481;DHT22;38393;52.404;13.532;2023-04-25T07:58:31;8.40;93.90
52481;DHT22;38393;52.404;13.532;2023-04-25T08:00:57;8.50;93.90
52481;DHT22;38393;52.404;13.532;2023-04-25T08:03:22;8.60;93.20
52481;DHT22;38393;52.404;13.532;2023-04-25T08:05:48;8.70;92.20
52481;DHT22;38393;52.404;13.532;2023-04-25T08:08:13;8.80;91.70
52481;DHT22;38393;52.404;13.532;2023-04-25T08:10:39;8.90;91.20
52481;DHT22;38393;52.404;13.532;2023-04-25T08:13:04;9.10;90.50
52481;DHT22;38393;52.404;13.532;2023-04-25T08:15:30;9.00;90.40
52481;DHT22;38393;52.404;13.532;2023-04-25T08:17:55;9.00;90.10
52481;DHT22;38393;52.404;13.532;2023-04-25T08:20:21;9.10;90.20
52481;DHT22;38393;52.404;13.532;2023-04-25T08:22:46;9.10;90.10
52481;DHT22;38393;52.404;13.532;2023-04-25T08:25:14;8.90;90.30
52481;DHT22;38393;52.404;13.532;2023-04-25T08:27:39;8.90;90.40
52481;DHT22;38393;52.404;13.532;2023-04-25T08:30:05;9.20;89.20
52481;DHT22;38393;52.404;13.532;2023-04-25T08:32:31;9.50;86.60
52481;DHT22;38393;52.404;13.532;2023-04-25T08:34:56;9.50;86.20
52481;DHT22;38393;52.404;13.532;2023-04-25T08:37:22;9.60;86.30
52481;DHT22;38393;52.404;13.532;2023-04-25T08:39:47;9.70;83.70
52481;DHT22;38393;52.404;13.532;2023-04-25T08:42:17;9.50;83.80
52481;DHT22;38393;52.404;13.532;2023-04-25T08:44:45;9.80;84.50
52481;DHT22;38393;52.404;13.532;2023-04-25T08:47:10;10.20;83.00
52481;DHT22;38393;52.404;13.532;2023-04-25T08:49:36;10.60;80.60
52481;DHT22;38393;52.404;13.532;2023-04-25T08:52:05;10.90;76.50
52481;DHT22;38393;52.404;13.532;2023-04-25T08:54:32;10.70;75.80
52481;DHT22;38393;52.404;13.532;2023-04-25T08:57:01;10.50;75.90
52481;DHT22;38393;52.404;13.532;2023-04-25T08:59:30;10.50;76.30
52481;DHT22;38393;52.404;13.532;2023-04-25T09:01:56;10.50;76.10
52481;DHT22;38393;52.404;13.532;2023-04-25T09:04:21;10.50;72.90
52481;DHT22;38393;52.404;13.532;2023-04-25T09:06:47;10.60;72.30
52481;DHT22;38393;52.404;13.532;2023-04-25T09:09:13;10.70;71.60
52481;DHT22;38393;52.404;13.532;2023-04-25T09:11:39;10.70;64.40
52481;DHT22;38393;52.404;13.532;2023-04-25T09:14:17;10.50;63.10
52481;DHT22;38393;52.404;13.532;2023-04-25T09:19:44;10.20;61.90
52481;DHT22;38393;52.404;13.532;2023-04-25T09:22:11;10.20;63.40
52481;DHT22;38393;52.404;13.532;2023-04-25T09:24:42;10.20;62.90
52481;DHT22;38393;52.404;13.532;2023-04-25T09:27:10;10.10;60.90
52481;DHT22;38393;52.404;13.532;2023-04-25T09:29:37;10.00;61.40
52481;DHT22;38393;52.404;13.532;2023-04-25T09:32:23;9.90;61.90
52481;DHT22;38393;52.404;13.532;2023-04-25T09:34:50;10.10;60.40
52481;DHT22;38393;52.404;13.532;2023-04-25T09:37:28;10.50;59.80
52481;DHT22;38393;52.404;13.532;2023-04-25T09:39:58;11.10;56.00
52481;DHT22;38393;52.404;13.532;2023-04-25T09:42:26;11.10;56.40
52481;DHT22;38393;52.404;13.532;2023-04-25T09:44:54;11.30;55.10
52481;DHT22;38393;52.404;13.532;2023-04-25T09:47:21;11.50;54.60
52481;DHT22;38393;52.404;13.532;2023-04-25T09:49:48;11.40;54.70
52481;DHT22;38393;52.404;13.532;2023-04-25T09:52:16;11.10;55.40
52481;DHT22;38393;52.404;13.532;2023-04-25T09:54:42;11.20;55.30
52481;DHT22;38393;52.404;13.532;2023-04-25T09:57:13;11.50;55.00
52481;DHT22;38393;52.404;13.532;2023-04-25T09:59:45;11.60;55.50
52481;DHT22;38393;52.404;13.532;2023-04-25T10:02:12;11.70;54.20
52481;DHT22;38393;52.404;13.532;2023-04-25T10:04:38;11.30;55.20
52481;DHT22;38393;52.404;13.532;2023-04-25T10:07:08;11.10;57.40
52481;DHT22;38393;52.404;13.532;2023-04-25T10:09:38;11.00;56.80
52481;DHT22;38393;52.404;13.532;2023-04-25T10:12:05;11.20;58.20
52481;DHT22;38393;52.404;13.532;2023-04-25T10:14:32;11.50;56.50
52481;DHT22;38393;52.404;13.532;2023-04-25T10:16:58;11.20;56.80
52481;DHT22;38393;52.404;13.532;2023-04-25T10:19:25;11.20;56.10
52481;DHT22;38393;52.404;13.532;2023-04-25T10:22:03;10.90;55.90
52481;DHT22;38393;52.404;13.532;2023-04-25T10:24:29;11.00;56.90
52481;DHT22;38393;52.404;13.532;2023-04-25T10:26:56;11.10;56.00
52481;DHT22;38393;52.404;13.532;2023-04-25T10:29:24;11.20;55.60
52481;DHT22;38393;52.404;13.532;2023-04-25T10:31:50;11.20;56.20
52481;DHT22;38393;52.404;13.532;2023-04-25T10:34:16;11.50;54.80
52481;DHT22;38393;52.404;13.532;2023-04-25T10:36:42;11.40;54.00
52481;DHT22;38393;52.404;13.532;2023-04-25T10:39:08;11.50;54.20
52481;DHT22;38393;52.404;13.532;2023-04-25T10:41:59;11.60;54.20
52481;DHT22;38393;52.404;13.532;2023-04-25T10:44:30;11.20;54.10
52481;DHT22;38393;52.404;13.532;2023-04-25T10:46:57;11.30;54.90
52481;DHT22;38393;52.404;13.532;2023-04-25T10:49:32;11.40;54.50
52481;DHT22;38393;52.404;13.532;2023-04-25T10:52:15;11.20;53.10
52481;DHT22;38393;52.404;13.532;2023-04-25T10:55:02;11.00;52.20
52481;DHT22;38393;52.404;13.532;2023-04-25T11:02:30;11.60;52.50
52481;DHT22;38393;52.404;13.532;2023-04-25T11:04:56;11.50;52.90
52481;DHT22;38393;52.404;13.532;2023-04-25T11:07:45;11.10;53.60
52481;DHT22;38393;52.404;13.532;2023-04-25T11:10:14;11.40;53.30
52481;DHT22;38393;52.404;13.532;2023-04-25T11:12:39;10.80;53.60
52481;DHT22;38393;52.404;13.532;2023-04-25T11:15:06;11.20;54.10
52481;DHT22;38393;52.404;13.532;2023-04-25T11:17:32;11.30;54.00
52481;DHT22;38393;52.404;13.532;2023-04-25T11:19:58;11.60;52.90
52481;DHT22;38393;52.404;13.532;2023-04-25T11:22:24;11.80;52.10
52481;DHT22;38393;52.404;13.532;2023-04-25T11:24:49;11.50;52.20
52481;DHT22;38393;52.404;13.532;2023-04-25T11:27:16;11.50;50.20
52481;DHT22;38393;52.404;13.532;2023-04-25T11:29:41;11.50;51.40
52481;DHT22;38393;52.404;13.532;2023-04-25T11:32:07;11.20;51.10
52481;DHT22;38393;52.404;13.532;2023-04-25T11:34:34;11.30;51.00
52481;DHT22;38393;52.404;13.532;2023-04-25T11:37:00;11.30;50.50
52481;DHT22;38393;52.404;13.532;2023-04-25T11:39:27;11.00;51.50
52481;DHT22;38393;52.404;13.532;2023-04-25T11:41:53;10.70;52.30
52481;DHT22;38393;52.404;13.532;2023-04-25T11:44:20;10.70;53.00
52481;DHT22;38393;52.404;13.532;2023-04-25T11:46:46;10.80;52.80
52481;DHT22;38393;52.404;13.532;2023-04-25T11:49:13;10.80;53.60
52481;DHT22;38393;52.404;13.532;2023-04-25T11:51:46;10.50;54.90
52481;DHT22;38393;52.404;13.532;2023-04-25T11:54:13;10.70;53.30
52481;DHT22;38393;52.404;13.532;2023-04-25T11:56:44;10.70;52.30
52481;DHT22;38393;52.404;13.532;2023-04-25T11:59:10;10.50;52.50
52481;DHT22;38393;52.404;13.532;2023-04-25T12:01:38;10.20;51.80
52481;DHT22;38393;52.404;13.532;2023-04-25T12:04:24;10.20;50.80
52481;DHT22;38393;52.404;13.532;2023-04-25T12:06:52;10.30;50.00
52481;DHT22;38393;52.404;13.532;2023-04-25T12:09:28;10.30;49.70
52481;DHT22;38393;52.404;13.532;2023-04-25T12:11:56;10.70;48.50
52481;DHT22;38393;52.404;13.532;2023-04-25T12:14:26;10.70;49.00
52481;DHT22;38393;52.404;13.532;2023-04-25T12:16:57;11.00;48.10
52481;DHT22;38393;52.404;13.532;2023-04-25T12:19:23;11.10;47.60
52481;DHT22;38393;52.404;13.532;2023-04-25T12:21:49;11.00;47.90
52481;DHT22;38393;52.404;13.532;2023-04-25T12:24:21;11.00;48.80
52481;DHT22;38393;52.404;13.532;2023-04-25T12:27:00;10.90;48.30
52481;DHT22;38393;52.404;13.532;2023-04-25T12:29:28;11.00;49.00
52481;DHT22;38393;52.404;13.532;2023-04-25T12:31:55;11.00;49.80
52481;DHT22;38393;52.404;13.532;2023-04-25T12:34:21;11.10;49.80
52481;DHT22;38393;52.404;13.532;2023-04-25T12:36:48;10.90;49.40
52481;DHT22;38393;52.404;13.532;2023-04-25T12:39:23;10.90;50.70
52481;DHT22;38393;52.404;13.532;2023-04-25T12:41:50;10.80;50.60
52481;DHT22;38393;52.404;13.532;2023-04-25T12:44:16;10.90;50.30
52481;DHT22;38393;52.404;13.532;2023-04-25T12:46:42;11.10;49.30
52481;DHT22;38393;52.404;13.532;2023-04-25T12:49:08;11.00;48.90
52481;DHT22;38393;52.404;13.532;2023-04-25T12:51:37;11.20;49.20
52481;DHT22;38393;52.404;13.532;2023-04-25T12:54:04;11.30;49.20
52481;DHT22;38393;52.404;13.532;2023-04-25T12:56:30;11.60;47.60
52481;DHT22;38393;52.404;13.532;2023-04-25T12:58:56;11.70;46.10
52481;DHT22;38393;52.404;13.532;2023-04-25T13:01:22;11.80;47.20
52481;DHT22;38393;52.404;13.532;2023-04-25T13:03:48;11.70;45.70
52481;DHT22;38393;52.404;13.532;2023-04-25T13:06:17;11.60;46.00
52481;DHT22;38393;52.404;13.532;2023-04-25T13:08:43;11.40;47.10
52481;DHT22;38393;52.404;13.532;2023-04-25T13:11:09;11.40;47.30
52481;DHT22;38393;52.404;13.532;2023-04-25T13:13:35;11.30;48.10
52481;DHT22;38393;52.404;13.532;2023-04-25T13:16:02;11.20;49.10
52481;DHT22;38393;52.404;13.532;2023-04-25T13:18:28;11.00;48.80
52481;DHT22;38393;52.404;13.532;2023-04-25T13:20:54;11.00;48.20
52481;DHT22;38393;52.404;13.532;2023-04-25T13:23:20;10.90;48.70
52481;DHT22;38393;52.404;13.532;2023-04-25T13:25:46;11.10;48.80
52481;DHT22;38393;52.404;13.532;2023-04-25T13:28:12;11.00;49.20
52481;DHT22;38393;52.404;13.532;2023-04-25T13:30:37;11.10;49.10
52481;DHT22;38393;52.404;13.532;2023-04-25T13:33:03;11.40;49.80
52481;DHT22;38393;52.404;13.532;2023-04-25T13:35:29;11.10;48.80
52481;DHT22;38393;52.404;13.532;2023-04-25T13:37:55;11.00;49.70
52481;DHT22;38393;52.404;13.532;2023-04-25T13:40:21;11.60;50.70
52481;DHT22;38393;52.404;13.532;2023-04-25T13:42:46;11.50;48.00
52481;DHT22;38393;52.404;13.532;2023-04-25T13:45:12;11.30;48.10
52481;DHT22;38393;52.404;13.532;2023-04-25T13:47:37;11.60;48.00
52481;DHT22;38393;52.404;13.532;2023-04-25T13:50:04;11.60;46.50
52481;DHT22;38393;52.404;13.532;2023-04-25T13:52:31;11.40;48.10
52481;DHT22;38393;52.404;13.532;2023-04-25T13:54:57;11.20;49.30
52481;DHT22;38393;52.404;13.532;2023-04-25T13:57:23;11.40;48.50
52481;DHT22;38393;52.404;13.532;2023-04-25T13:59:48;11.30;49.20
52481;DHT22;38393;52.404;13.532;2023-04-25T14:02:14;11.60;48.20
52481;DHT22;38393;52.404;13.532;2023-04-25T14:04:40;11.50;48.30
52481;DHT22;38393;52.404;13.532;2023-04-25T14:07:05;11.80;48.60
52481;DHT22;38393;52.404;13.532;2023-04-25T14:09:31;12.00;48.10
52481;DHT22;38393;52.404;13.532;2023-04-25T14:11:56;12.00;47.30
52481;DHT22;38393;52.404;13.532;2023-04-25T14:14:22;11.90;47.10
52481;DHT22;38393;52.404;13.532;2023-04-25T14:16:49;11.50;48.00
52481;DHT22;38393;52.404;13.532;2023-04-25T14:19:18;11.20;48.60
52481;DHT22;38393;52.404;13.532;2023-04-25T14:21:43;10.80;49.80
52481;DHT22;38393;52.404;13.532;2023-04-25T14:24:09;10.70;50.80
52481;DHT22;38393;52.404;13.532;2023-04-25T14:26:36;10.40;52.70
52481;DHT22;38393;52.404;13.532;2023-04-25T14:29:03;10.10;53.00
52481;DHT22;38393;52.404;13.532;2023-04-25T14:31:28;10.00;53.20
52481;DHT22;38393;52.404;13.532;2023-04-25T14:33:54;10.00;54.20
52481;DHT22;38393;52.404;13.532;2023-04-25T14:36:19;10.00;54.60
52481;DHT22;38393;52.404;13.532;2023-04-25T14:38:45;10.00;54.70
52481;DHT22;38393;52.404;13.532;2023-04-25T14:41:11;10.10;53.50
52481;DHT22;38393;52.404;13.532;2023-04-25T14:43:36;10.00;53.50
52481;DHT22;38393;52.404;13.532;2023-04-25T14:46:02;10.00;52.90
52481;DHT22;38393;52.404;13.532;2023-04-25T14:48:29;10.20;52.40
52481;DHT22;38393;52.404;13.532;2023-04-25T14:50:54;10.10;52.50
52481;DHT22;38393;52.404;13.532;2023-04-25T14:53:22;10.10;51.80
52481;DHT22;38393;52.404;13.532;2023-04-25T14:55:47;10.10;51.80
52481;DHT22;38393;52.404;13.532;2023-04-25T14:58:14;10.20;51.40
52481;DHT22;38393;52.404;13.532;2023-04-25T15:00:39;10.20;51.30
52481;DHT22;38393;52.404;13.532;2023-04-25T15:03:05;10.50;50.30
52481;DHT22;38393;52.404;13.532;2023-04-25T15:05:32;10.70;50.60
52481;DHT22;38393;52.404;13.532;2023-04-25T15:07:58;10.70;50.50
52481;DHT22;38393;52.404;13.532;2023-04-25T15:10:23;10.60;51.50
52481;DHT22;38393;52.404;13.532;2023-04-25T15:12:49;10.90;52.00
52481;DHT22;38393;52.404;13.532;2023-04-25T15:15:15;11.20;51.20
52481;DHT22;38393;52.404;13.532;2023-04-25T15:17:41;11.20;50.70
52481;DHT22;38393;52.404;13.532;2023-04-25T15:20:08;10.50;52.60
52481;DHT22;38393;52.404;13.532;2023-04-25T15:22:39;10.80;52.90
52481;DHT22;38393;52.404;13.532;2023-04-25T15:25:06;10.80;52.60
52481;DHT22;38393;52.404;13.532;2023-04-25T15:27:39;10.50;53.90
52481;DHT22;38393;52.404;13.532;2023-04-25T15:30:12;10.40;53.10